Time;durP1;ratioP1;P1;durP2;ratioP2;P2;SDS_P1;SDS_P2;PMS_P1;PMS_P2;Temp;Humidity;BMP_temperature;BMP_pressure;BME280_temperature;BME280_humidity;BME280_pressure;Samples;Min_cycle;Max_cycle;Signal;HPM_P1;HPM_P2
2022/06/19 00:02:08;;;;;;;3.45;2.50;;;21.70;99.90;;;;;;5030518;28;20044;-78
2022/06/19 00:04:33;;;;;;;2.58;2.10;;;21.60;99.90;;;;;;5021869;28;20049;-78
2022/06/19 00:06:59;;;;;;;2.40;1.98;;;21.60;99.90;;;;;;5024080;28;20091;-79
2022/06/19 00:09:26;;;;;;;3.00;2.13;;;21.60;99.90;;;;;;5028937;28;20036;-79
2022/06/19 00:11:52;;;;;;;3.92;2.42;;;21.50;99.90;;;;;;5030038;28;20112;-78
2022/06/19 00:14:17;;;;;;;6.75;2.80;;;21.50;99.90;;;;;;5031082;28;20060;-78
2022/06/19 00:16:43;;;;;;;2.80;2.25;;;21.50;99.90;;;;;;5028453;28;20595;-78
2022/06/19 00:19:08;;;;;;;3.88;2.35;;;21.50;99.90;;;;;;5018024;28;20041;-79
2022/06/19 00:21:34;;;;;;;2.67;1.95;;;21.50;99.90;;;;;;5026263;28;20078;-79
2022/06/19 00:23:59;;;;;;;4.15;2.70;;;21.50;99.90;;;;;;5031540;28;20594;-79
2022/06/19 00:26:25;;;;;;;9.60;2.92;;;21.50;99.90;;;;;;5029284;28;20029;-78
2022/06/19 00:28:50;;;;;;;3.53;2.50;;;21.50;99.90;;;;;;5026992;28;20112;-77
2022/06/19 00:31:16;;;;;;;3.22;2.08;;;21.40;99.90;;;;;;5025238;28;20028;-78
2022/06/19 00:33:42;;;;;;;2.70;2.05;;;21.50;99.90;;;;;;5025721;28;20037;-78
2022/06/19 00:36:08;;;;;;;3.20;2.15;;;21.40;99.90;;;;;;5024927;28;20106;-78
2022/06/19 00:38:34;;;;;;;3.28;2.20;;;21.40;99.90;;;;;;5025212;28;20114;-78
2022/06/19 00:41:01;;;;;;;3.95;2.60;;;21.30;99.90;;;;;;5027938;28;20468;-78
2022/06/19 00:43:28;;;;;;;2.42;1.98;;;21.40;99.90;;;;;;5022553;28;20540;-78
2022/06/19 00:45:57;;;;;;;3.17;2.58;;;21.40;99.90;;;;;;5028874;28;20021;-78
2022/06/19 00:48:30;;;;;;;3.50;2.40;;;21.40;99.90;;;;;;5027894;28;20035;-78
2022/06/19 00:50:59;;;;;;;4.40;2.15;;;21.30;99.90;;;;;;5027797;28;20542;-78
2022/06/19 00:53:31;;;;;;;3.78;2.83;;;21.10;99.90;;;;;;5014966;28;20049;-78
2022/06/19 00:55:57;;;;;;;2.10;1.90;;;21.20;99.90;;;;;;5027993;28;20026;-78
2022/06/19 00:58:27;;;;;;;3.95;2.58;;;21.30;99.90;;;;;;5026418;28;20112;-78
2022/06/19 01:00:57;;;;;;;3.03;2.30;;;21.40;99.90;;;;;;5027126;28;20123;-78
2022/06/19 01:03:29;;;;;;;2.85;2.45;;;21.40;99.90;;;;;;5029606;28;20034;-78
2022/06/19 01:05:55;;;;;;;4.57;2.90;;;21.40;99.90;;;;;;5019187;28;20045;-78
2022/06/19 01:08:21;;;;;;;26.30;3.45;;;21.40;99.90;;;;;;5023671;28;20072;-78
2022/06/19 01:10:49;;;;;;;6.20;2.72;;;21.40;99.90;;;;;;5026734;28;20022;-78
2022/06/19 01:13:19;;;;;;;3.00;2.13;;;21.40;99.90;;;;;;5026573;28;20480;-78
2022/06/19 01:15:45;;;;;;;3.30;2.20;;;21.40;99.90;;;;;;5026704;28;20391;-78
2022/06/19 01:18:12;;;;;;;3.78;2.70;;;21.30;99.90;;;;;;5022765;28;20025;-77
2022/06/19 01:20:40;;;;;;;2.97;2.35;;;21.30;99.90;;;;;;5024619;28;20061;-78
2022/06/19 01:23:38;;;;;;;5.15;2.60;;;21.30;99.90;;;;;;5027997;28;20014;-78
2022/06/19 01:26:04;;;;;;;4.35;2.60;;;21.30;99.90;;;;;;5022472;28;20083;-77
2022/06/19 01:28:46;;;;;;;4.15;2.47;;;21.20;99.90;;;;;;5025208;28;20026;-78
2022/06/19 01:31:14;;;;;;;;;;;21.00;99.90;;;;;;5027486;28;20044;-78
2022/06/19 01:33:44;;;;;;;5.72;2.47;;;20.90;99.90;;;;;;5028625;28;19936;-78
2022/06/19 01:36:12;;;;;;;2.85;2.47;;;20.90;99.90;;;;;;5021475;28;20018;-77
2022/06/19 01:38:39;;;;;;;6.72;2.85;;;20.90;99.90;;;;;;5025026;28;20029;-78
2022/06/19 01:41:12;;;;;;;3.63;2.40;;;20.90;99.90;;;;;;5021632;28;20031;-78
2022/06/19 01:43:37;;;;;;;3.78;2.50;;;20.90;99.90;;;;;;5025162;28;20037;-77
2022/06/19 01:46:04;;;;;;;3.20;2.55;;;20.90;99.90;;;;;;5026626;28;20036;-77
2022/06/19 01:48:31;;;;;;;2.92;2.33;;;20.90;99.90;;;;;;5026635;28;20034;-76
2022/06/19 01:50:59;;;;;;;2.97;1.90;;;20.90;99.90;;;;;;5023060;28;20057;-77
2022/06/19 01:53:39;;;;;;;3.45;2.70;;;20.80;99.90;;;;;;5021952;28;20473;-77
2022/06/19 01:56:07;;;;;;;4.40;3.15;;;20.80;99.90;;;;;;5027479;28;20029;-77
2022/06/19 01:58:34;;;;;;;3.28;2.42;;;20.80;99.90;;;;;;5025903;28;20113;-77
2022/06/19 02:01:04;;;;;;;5.60;2.78;;;20.80;99.90;;;;;;5015339;28;20084;-77
2022/06/19 02:03:37;;;;;;;2.42;2.10;;;20.80;99.90;;;;;;5027183;28;20037;-77
2022/06/19 02:06:04;;;;;;;2.78;2.25;;;20.80;99.90;;;;;;5028568;28;20030;-77
2022/06/19 02:08:32;;;;;;;5.35;2.92;;;20.80;99.90;;;;;;5026393;28;20030;-77
2022/06/19 02:10:59;;;;;;;3.58;2.35;;;20.70;99.90;;;;;;5023579;28;20516;-77
2022/06/19 02:13:25;;;;;;;9.15;2.40;;;20.80;99.90;;;;;;5021932;28;20447;-77
2022/06/19 02:15:53;;;;;;;2.60;1.98;;;20.80;99.90;;;;;;5028532;28;20033;-77
2022/06/19 02:18:34;;;;;;;5.43;3.03;;;20.80;99.90;;;;;;5022792;28;20034;-78
2022/06/19 02:20:59;;;;;;;;;;;20.70;99.90;;;;;;5027308;28;20025;-77
2022/06/19 02:23:30;;;;;;;2.95;2.20;;;20.70;99.90;;;;;;5024798;28;20291;-77
2022/06/19 02:25:57;;;;;;;4.63;2.40;;;20.70;99.90;;;;;;5027184;28;20079;-77
2022/06/19 02:28:22;;;;;;;2.72;1.90;;;20.70;99.90;;;;;;5026183;28;20291;-77
2022/06/19 02:30:48;;;;;;;6.47;2.03;;;20.70;99.90;;;;;;5031418;28;20028;-77
2022/06/19 02:33:17;;;;;;;2.35;2.15;;;20.70;99.90;;;;;;5021498;28;20032;-77
2022/06/19 02:35:42;;;;;;;5.75;2.17;;;20.70;99.90;;;;;;5025182;28;20476;-77
2022/06/19 02:38:08;;;;;;;8.82;3.13;;;20.70;99.90;;;;;;5024942;28;20075;-77
2022/06/19 02:40:54;;;;;;;2.55;2.10;;;20.70;99.90;;;;;;5029296;28;20040;-77
2022/06/19 02:43:27;;;;;;;3.90;2.20;;;20.70;99.90;;;;;;5029691;28;20021;-77
2022/06/19 02:45:53;;;;;;;2.97;2.38;;;20.70;99.90;;;;;;5029788;28;20028;-77
2022/06/19 02:48:28;;;;;;;14.23;2.35;;;20.70;99.90;;;;;;5023401;28;20036;-77
2022/06/19 02:50:56;;;;;;;3.20;2.35;;;20.80;99.90;;;;;;5029214;28;20442;-77
2022/06/19 02:53:22;;;;;;;3.83;2.50;;;20.70;99.90;;;;;;5031946;28;20034;-77
2022/06/19 02:55:48;;;;;;;2.53;1.70;;;20.70;99.90;;;;;;5029767;28;20029;-77
2022/06/19 02:58:14;;;;;;;2.22;2.03;;;20.70;99.90;;;;;;5019408;28;20029;-77
2022/06/19 03:00:39;;;;;;;6.47;2.92;;;20.70;99.90;;;;;;5025107;28;20053;-77
2022/06/19 03:03:17;;;;;;;2.53;2.33;;;20.80;99.90;;;;;;5025475;28;20047;-77
2022/06/19 03:05:43;;;;;;;6.05;3.08;;;20.80;99.90;;;;;;5028700;28;20026;-78
2022/06/19 03:08:08;;;;;;;2.47;2.08;;;20.70;99.90;;;;;;5024934;28;20021;-77
2022/06/19 03:10:35;;;;;;;5.97;1.98;;;20.70;99.90;;;;;;5030685;28;20087;-77
2022/06/19 03:13:00;;;;;;;2.75;1.90;;;20.80;99.90;;;;;;5021261;28;20030;-77
2022/06/19 03:15:26;;;;;;;4.03;2.30;;;20.70;99.90;;;;;;5028174;28;20022;-77
2022/06/19 03:17:52;;;;;;;3.92;2.60;;;20.70;99.90;;;;;;5031501;28;20722;-78
2022/06/19 03:20:20;;;;;;;2.67;2.13;;;20.80;99.90;;;;;;5032121;28;20025;-77
2022/06/19 03:22:46;;;;;;;2.50;2.10;;;20.80;99.90;;;;;;5025279;28;20029;-77
2022/06/19 03:25:11;;;;;;;7.30;2.80;;;20.80;99.90;;;;;;5030784;28;20029;-77
2022/06/19 03:27:37;;;;;;;3.85;2.58;;;20.80;99.90;;;;;;5029873;28;20538;-77
2022/06/19 03:30:04;;;;;;;2.78;2.33;;;20.90;99.90;;;;;;5023301;28;20476;-77
2022/06/19 03:32:29;;;;;;;3.30;2.38;;;20.90;99.90;;;;;;5023736;28;20029;-77
2022/06/19 03:34:56;;;;;;;4.60;2.70;;;20.90;99.90;;;;;;5026616;28;20271;-77
2022/06/19 03:37:22;;;;;;;2.70;2.03;;;20.90;99.90;;;;;;5027674;28;20033;-78
2022/06/19 03:39:48;;;;;;;3.58;2.47;;;20.90;99.90;;;;;;5020312;28;20059;-77
2022/06/19 03:42:15;;;;;;;4.85;2.50;;;20.90;99.90;;;;;;5023243;28;20583;-78
2022/06/19 03:44:40;;;;;;;3.70;2.63;;;20.90;99.90;;;;;;5025205;28;20170;-77
2022/06/19 03:47:06;;;;;;;3.72;2.53;;;21.00;99.90;;;;;;5025396;28;20101;-76
2022/06/19 03:49:32;;;;;;;3.97;2.95;;;21.00;99.90;;;;;;5018782;28;20053;-78
2022/06/19 03:51:57;;;;;;;3.97;2.65;;;21.10;99.90;;;;;;5028454;28;20022;-78
2022/06/19 03:54:23;;;;;;;4.60;2.85;;;21.10;99.90;;;;;;5027955;28;20033;-78
2022/06/19 03:56:48;;;;;;;2.88;2.47;;;21.20;99.90;;;;;;5028982;28;20032;-78
2022/06/19 03:59:14;;;;;;;4.18;2.40;;;21.20;99.90;;;;;;5028073;28;20068;-78
2022/06/19 04:01:40;;;;;;;4.85;2.92;;;21.20;99.90;;;;;;5029901;28;20021;-77
2022/06/19 04:04:06;;;;;;;4.03;3.05;;;21.30;99.90;;;;;;5027232;28;20073;-78
2022/06/19 04:06:35;;;;;;;2.55;2.03;;;21.30;99.90;;;;;;5025280;28;20028;-76
2022/06/19 04:09:03;;;;;;;4.10;2.92;;;21.30;99.90;;;;;;5025223;28;20038;-76
2022/06/19 04:11:29;;;;;;;3.85;2.55;;;21.30;99.90;;;;;;5022427;28;20384;-76
2022/06/19 04:13:56;;;;;;;2.88;2.58;;;21.30;99.90;;;;;;5024165;28;20026;-76
2022/06/19 04:16:24;;;;;;;4.32;2.88;;;21.40;99.90;;;;;;5027938;28;20462;-77
2022/06/19 04:18:52;;;;;;;8.63;3.95;;;21.40;99.90;;;;;;5025615;28;20025;-76
2022/06/19 04:21:21;;;;;;;5.97;3.72;;;21.40;99.90;;;;;;5028089;28;20112;-77
2022/06/19 04:23:49;;;;;;;5.10;2.97;;;21.50;99.90;;;;;;5032059;28;20033;-76
2022/06/19 04:26:19;;;;;;;4.57;2.60;;;21.50;99.90;;;;;;5034100;28;20063;-77
2022/06/19 04:28:44;;;;;;;4.45;2.92;;;21.50;99.90;;;;;;5029377;28;20022;-76
2022/06/19 04:31:10;;;;;;;5.40;3.45;;;21.50;99.90;;;;;;5027705;28;20022;-76
2022/06/19 04:33:39;;;;;;;7.07;3.60;;;21.60;99.90;;;;;;5028477;28;20021;-77
2022/06/19 04:36:11;;;;;;;4.38;2.80;;;21.60;99.90;;;;;;5021027;28;20034;-77
2022/06/19 04:38:40;;;;;;;7.35;3.72;;;21.60;99.90;;;;;;5018219;28;20026;-77
2022/06/19 04:41:16;;;;;;;3.42;2.85;;;21.70;99.90;;;;;;5026723;28;20034;-77
2022/06/19 04:43:42;;;;;;;5.22;3.05;;;21.70;99.90;;;;;;5015236;28;20430;-76
2022/06/19 04:46:08;;;;;;;4.55;3.20;;;21.80;99.90;;;;;;5025752;28;20032;-76
2022/06/19 04:48:34;;;;;;;6.32;3.15;;;21.80;99.90;;;;;;5027455;28;20106;-77
2022/06/19 04:51:03;;;;;;;3.45;2.40;;;21.80;99.90;;;;;;5020131;28;20519;-76
2022/06/19 04:53:29;;;;;;;4.22;3.00;;;21.90;99.90;;;;;;5028075;28;20074;-77
2022/06/19 04:55:55;;;;;;;6.65;3.38;;;21.90;99.90;;;;;;5024143;28;20029;-76
2022/06/19 04:58:22;;;;;;;5.47;3.28;;;22.00;99.90;;;;;;5027998;28;20018;-77
2022/06/19 05:00:49;;;;;;;4.40;2.88;;;22.00;99.90;;;;;;5025614;28;20030;-76
2022/06/19 05:03:15;;;;;;;4.88;3.30;;;22.00;99.90;;;;;;5016798;28;20041;-76
2022/06/19 05:05:41;;;;;;;4.07;3.10;;;22.10;99.90;;;;;;5027580;28;20034;-76
2022/06/19 05:08:06;;;;;;;3.72;3.10;;;22.20;99.90;;;;;;5025095;28;20034;-77
2022/06/19 05:10:32;;;;;;;6.45;3.42;;;22.20;99.90;;;;;;5026766;28;20078;-76
2022/06/19 05:12:57;;;;;;;4.55;3.28;;;22.30;99.90;;;;;;5025355;28;20392;-76
2022/06/19 05:15:23;;;;;;;7.70;3.72;;;22.30;99.90;;;;;;5028560;28;20041;-76
2022/06/19 05:17:49;;;;;;;8.18;4.20;;;22.30;99.90;;;;;;5025108;28;20127;-77
2022/06/19 05:20:16;;;;;;;4.82;3.47;;;22.30;99.90;;;;;;5025704;28;20025;-77
2022/06/19 05:22:41;;;;;;;4.32;3.58;;;22.40;99.90;;;;;;5029544;28;20025;-77
2022/06/19 05:25:08;;;;;;;7.00;3.33;;;22.50;99.90;;;;;;5028791;28;20025;-77
2022/06/19 05:27:36;;;;;;;9.65;4.18;;;22.60;99.90;;;;;;5028185;28;20476;-77
2022/06/19 05:30:03;;;;;;;6.97;4.55;;;22.60;99.90;;;;;;5026958;28;20021;-77
2022/06/19 05:32:29;;;;;;;5.35;3.75;;;22.70;99.60;;;;;;5035461;28;20017;-77
2022/06/19 05:34:54;;;;;;;4.25;3.00;;;22.70;99.90;;;;;;5029564;28;20029;-77
2022/06/19 05:37:20;;;;;;;5.38;3.72;;;22.70;99.30;;;;;;5030693;28;20040;-76
2022/06/19 05:39:45;;;;;;;4.60;3.00;;;22.80;98.70;;;;;;5030341;28;20558;-77
2022/06/19 05:42:11;;;;;;;5.22;3.60;;;22.80;98.60;;;;;;5027798;28;20033;-76
2022/06/19 05:44:37;;;;;;;5.65;3.58;;;22.90;97.70;;;;;;5029568;28;20029;-76
2022/06/19 05:47:02;;;;;;;5.75;3.25;;;23.00;96.50;;;;;;5030299;28;20025;-76
2022/06/19 05:49:28;;;;;;;3.58;2.72;;;23.10;95.90;;;;;;5028318;28;20112;-77
2022/06/19 05:51:53;;;;;;;4.85;3.15;;;23.20;96.20;;;;;;5026481;28;20118;-76
2022/06/19 05:54:19;;;;;;;4.10;3.10;;;23.30;95.20;;;;;;5029622;28;20025;-77
2022/06/19 05:56:44;;;;;;;5.47;3.03;;;23.40;94.60;;;;;;5029383;28;20025;-76
2022/06/19 05:59:09;;;;;;;4.63;3.13;;;23.50;94.00;;;;;;5025656;28;20029;-76
2022/06/19 06:01:35;;;;;;;7.03;4.03;;;23.60;92.90;;;;;;5026199;28;20067;-76
2022/06/19 06:04:00;;;;;;;6.03;2.95;;;23.70;93.10;;;;;;5026624;28;20563;-77
2022/06/19 06:06:29;;;;;;;3.80;2.80;;;23.80;91.50;;;;;;5027498;28;20029;-76
2022/06/19 06:08:55;;;;;;;4.65;3.47;;;23.90;91.40;;;;;;5026770;28;20056;-76
2022/06/19 06:11:22;;;;;;;4.97;3.05;;;23.90;91.10;;;;;;5026984;28;20026;-76
2022/06/19 06:13:48;;;;;;;6.47;3.55;;;24.00;90.30;;;;;;5025787;28;20032;-77
2022/06/19 06:16:17;;;;;;;4.78;3.60;;;24.10;89.20;;;;;;5022071;28;20053;-77
2022/06/19 06:18:43;;;;;;;5.82;2.95;;;24.20;87.80;;;;;;5024314;28;20024;-75
2022/06/19 06:21:15;;;;;;;4.90;3.38;;;24.30;86.30;;;;;;5024595;28;20416;-77
2022/06/19 06:23:42;;;;;;;6.55;3.08;;;24.40;85.50;;;;;;5026490;28;20025;-74
2022/06/19 06:26:10;;;;;;;4.63;3.40;;;24.50;84.60;;;;;;5026507;28;20038;-73
2022/06/19 06:28:39;;;;;;;6.32;3.33;;;24.50;84.10;;;;;;5025231;28;20032;-73
2022/06/19 06:31:05;;;;;;;3.72;3.13;;;24.60;83.70;;;;;;5025982;28;20473;-75
2022/06/19 06:33:30;;;;;;;8.60;3.28;;;24.60;82.60;;;;;;5022545;28;20045;-76
2022/06/19 06:35:56;;;;;;;5.07;3.08;;;24.80;82.90;;;;;;5027559;28;20024;-75
2022/06/19 06:38:23;;;;;;;9.50;3.72;;;24.80;81.60;;;;;;5021454;28;20610;-72
2022/06/19 06:40:49;;;;;;;3.47;2.83;;;24.80;81.70;;;;;;5020202;28;20091;-72
2022/06/19 06:43:14;;;;;;;7.70;2.75;;;24.90;82.90;;;;;;5026610;28;20423;-73
2022/06/19 06:45:40;;;;;;;6.80;2.90;;;25.10;80.40;;;;;;5021885;28;20038;-71
2022/06/19 06:48:06;;;;;;;4.95;3.20;;;25.10;78.90;;;;;;5020715;28;20547;-72
2022/06/19 06:50:31;;;;;;;5.40;3.85;;;25.10;79.00;;;;;;5024298;28;20030;-72
2022/06/19 06:52:57;;;;;;;5.50;3.47;;;25.30;78.30;;;;;;5026131;28;20511;-71
2022/06/19 06:55:22;;;;;;;8.02;3.85;;;25.30;78.20;;;;;;5023229;28;20030;-73
2022/06/19 06:57:48;;;;;;;3.53;2.63;;;25.40;76.50;;;;;;5026156;28;20521;-76
2022/06/19 07:00:17;;;;;;;5.28;3.25;;;25.50;77.10;;;;;;5025027;28;20529;-74
2022/06/19 07:02:43;;;;;;;3.65;3.15;;;25.60;75.00;;;;;;5022464;28;20504;-76
2022/06/19 07:05:09;;;;;;;4.22;2.60;;;25.60;74.20;;;;;;5026857;28;20064;-80
2022/06/19 07:07:34;;;;;;;9.40;3.25;;;25.60;74.20;;;;;;5020585;28;20026;-77
2022/06/19 07:10:00;;;;;;;4.13;3.03;;;25.80;75.30;;;;;;5021857;28;20853;-76
2022/06/19 07:12:25;;;;;;;6.03;3.30;;;25.90;73.30;;;;;;5022070;28;20029;-77
2022/06/19 07:14:51;;;;;;;3.90;2.63;;;26.00;73.40;;;;;;5025895;28;20488;-77
2022/06/19 07:17:16;;;;;;;4.07;2.70;;;26.20;71.30;;;;;;5027872;28;20034;-77
2022/06/19 07:19:42;;;;;;;5.03;3.08;;;26.00;71.60;;;;;;5021237;28;20044;-77
2022/06/19 07:22:13;;;;;;;2.92;2.35;;;26.30;70.20;;;;;;5026124;28;20479;-80
2022/06/19 07:24:38;;;;;;;3.90;2.83;;;26.30;70.40;;;;;;5028377;28;20112;-79
2022/06/19 07:27:04;;;;;;;3.38;2.38;;;26.60;68.60;;;;;;5031350;28;20112;-78
2022/06/19 07:29:30;;;;;;;7.45;3.47;;;26.60;69.00;;;;;;5030021;28;20108;-78
2022/06/19 07:31:55;;;;;;;4.00;2.80;;;26.80;67.60;;;;;;5029787;28;20022;-79
2022/06/19 07:34:21;;;;;;;13.98;4.00;;;26.70;67.90;;;;;;5023711;28;20032;-78
2022/06/19 07:36:46;;;;;;;13.85;4.38;;;26.60;68.10;;;;;;5031540;28;20038;-78
2022/06/19 07:39:12;;;;;;;8.68;3.95;;;26.90;67.80;;;;;;5029201;28;20044;-78
2022/06/19 07:41:37;;;;;;;5.32;3.03;;;26.90;67.50;;;;;;5026794;28;20022;-77
2022/06/19 07:44:03;;;;;;;3.17;2.40;;;26.80;68.10;;;;;;5028160;28;20017;-77
2022/06/19 07:46:28;;;;;;;5.65;3.45;;;26.80;67.20;;;;;;5029580;28;20025;-79
2022/06/19 07:51:38;;;;;;;5.55;2.17;;;27.40;64.50;;;;;;5024607;28;20037;-79
2022/06/19 07:54:04;;;;;;;8.93;2.63;;;27.50;65.50;;;;;;5022553;28;20392;-77
2022/06/19 07:56:30;;;;;;;4.75;2.67;;;27.70;66.70;;;;;;5026621;28;20044;-78
2022/06/19 07:58:55;;;;;;;4.70;2.30;;;27.80;63.50;;;;;;5023294;28;20026;-78
2022/06/19 08:01:21;;;;;;;2.50;2.03;;;27.90;62.90;;;;;;5026021;28;20037;-81
2022/06/19 08:03:47;;;;;;;6.75;1.98;;;27.90;60.00;;;;;;5022637;28;20124;-82
2022/06/19 08:06:14;;;;;;;4.50;2.47;;;28.00;59.50;;;;;;5027729;28;20025;-83
2022/06/19 08:08:41;;;;;;;2.80;2.47;;;27.30;61.80;;;;;;5025910;28;20025;-83
2022/06/19 08:11:07;;;;;;;3.08;2.08;;;27.30;62.20;;;;;;5026388;28;20025;-82
2022/06/19 08:13:34;;;;;;;4.10;2.80;;;28.10;59.40;;;;;;5026378;28;20101;-82
2022/06/19 08:16:04;;;;;;;7.47;2.85;;;28.60;58.40;;;;;;5020751;28;20030;-83
2022/06/19 08:18:32;;;;;;;4.38;2.40;;;28.50;58.50;;;;;;5025523;28;20445;-78
2022/06/19 08:20:58;;;;;;;4.55;2.75;;;28.80;57.70;;;;;;5026719;28;20431;-78
2022/06/19 08:23:26;;;;;;;3.50;2.50;;;28.90;56.70;;;;;;5026214;28;20039;-77
2022/06/19 08:25:52;;;;;;;4.30;2.97;;;28.80;56.40;;;;;;5026119;28;20037;-83
2022/06/19 08:28:27;;;;;;;5.22;3.03;;;28.90;56.20;;;;;;5021802;28;20024;-79
2022/06/19 08:30:52;;;;;;;5.22;3.03;;;29.00;55.90;;;;;;5027947;28;20026;-81
2022/06/19 08:33:19;;;;;;;7.10;3.75;;;29.10;56.80;;;;;;5022725;28;20032;-79
2022/06/19 08:35:49;;;;;;;5.93;3.42;;;29.10;55.40;;;;;;5025154;28;20108;-79
2022/06/19 08:38:19;;;;;;;6.38;3.17;;;29.40;54.60;;;;;;5025002;28;20040;-75
2022/06/19 08:41:27;;;;;;;5.93;3.75;;;29.20;54.80;;;;;;5026914;28;20609;-76
2022/06/19 08:44:22;;;;;;;4.40;3.00;;;29.20;55.00;;;;;;5022603;28;20120;-75
2022/06/19 08:46:56;;;;;;;4.28;2.75;;;29.50;54.70;;;;;;5025036;28;20025;-76
2022/06/19 08:49:47;;;;;;;4.65;3.22;;;30.00;53.50;;;;;;5025869;28;20502;-76
2022/06/19 08:52:37;;;;;;;3.78;3.03;;;29.90;53.40;;;;;;5026022;28;20022;-76
2022/06/19 08:55:02;;;;;;;7.03;3.80;;;29.60;53.60;;;;;;5023397;28;20034;-76
2022/06/19 08:57:40;;;;;;;7.07;3.15;;;29.50;53.60;;;;;;5026276;28;20468;-76
2022/06/19 09:00:17;;;;;;;5.93;3.08;;;29.80;52.90;;;;;;5022488;28;20116;-74
2022/06/19 09:03:10;;;;;;;3.47;2.70;;;30.10;51.10;;;;;;5028681;28;20120;-75
2022/06/19 09:06:13;;;;;;;4.95;2.78;;;30.30;51.00;;;;;;5019364;28;20040;-75
2022/06/19 09:09:03;;;;;;;5.53;2.92;;;29.20;52.30;;;;;;5026370;28;20025;-75
2022/06/19 09:12:01;;;;;;;4.57;3.05;;;30.20;51.30;;;;;;5029894;28;20172;-73
2022/06/19 09:15:00;;;;;;;7.72;3.10;;;30.40;50.40;;;;;;5024941;28;20033;-74
2022/06/19 09:17:34;;;;;;;5.93;2.53;;;31.00;49.60;;;;;;5022250;28;20317;-74
2022/06/19 09:20:20;;;;;;;6.75;3.22;;;30.40;50.30;;;;;;5024757;28;20034;-74
2022/06/19 09:23:09;;;;;;;6.30;3.03;;;29.60;52.20;;;;;;5023094;28;20040;-74
2022/06/19 09:25:41;;;;;;;4.30;2.50;;;30.50;49.30;;;;;;5024631;28;20083;-74
2022/06/19 09:28:32;;;;;;;4.35;1.95;;;31.00;49.40;;;;;;5025755;28;20099;-86
2022/06/19 09:31:39;;;;;;;10.93;2.88;;;31.90;46.40;;;;;;5021970;28;20116;-81
2022/06/19 09:34:19;;;;;;;7.85;2.58;;;32.20;45.10;;;;;;5015463;28;20243;-84
2022/06/19 09:37:00;;;;;;;5.82;2.50;;;32.70;44.60;;;;;;5019953;28;20029;-82
2022/06/19 09:39:51;;;;;;;4.72;2.35;;;32.20;45.30;;;;;;5018870;28;20084;-87
2022/06/19 09:42:22;;;;;;;5.45;2.63;;;31.60;47.10;;;;;;5022816;28;20065;-82
2022/06/19 09:45:19;;;;;;;3.50;2.40;;;32.40;44.00;;;;;;5019100;28;20251;-85
2022/06/19 09:47:57;;;;;;;1.77;1.40;;;32.50;43.30;;;;;;5022274;28;20030;-84
2022/06/19 09:50:32;;;;;;;6.20;2.05;;;32.70;42.70;;;;;;5015938;28;20425;-82
2022/06/19 09:53:06;;;;;;;4.70;1.83;;;32.50;42.30;;;;;;5027472;28;20057;-82
2022/06/19 09:55:40;;;;;;;6.00;2.13;;;32.80;42.00;;;;;;5020286;28;20052;-80
2022/06/19 09:58:28;;;;;;;10.30;2.10;;;33.10;41.50;;;;;;5014096;28;20040;-85
2022/06/19 10:00:57;;;;;;;12.25;3.13;;;33.00;42.10;;;;;;5020849;28;20324;-82
2022/06/19 10:03:33;;;;;;;6.40;1.42;;;32.90;41.50;;;;;;5020652;28;20046;-81
2022/06/19 10:06:11;;;;;;;2.30;1.33;;;33.00;41.20;;;;;;5018025;28;20504;-85
2022/06/19 10:09:22;;;;;;;11.00;2.45;;;33.00;40.80;;;;;;5019167;28;20025;-85
2022/06/19 10:11:51;;;;;;;7.43;1.70;;;33.00;41.50;;;;;;5013151;28;20426;-82
2022/06/19 10:14:41;;;;;;;5.70;2.17;;;33.10;41.10;;;;;;5022248;28;20042;-83
2022/06/19 10:17:40;;;;;;;2.47;1.40;;;32.90;41.70;;;;;;5016171;28;20040;-84
2022/06/19 10:20:16;;;;;;;3.90;2.05;;;32.90;41.80;;;;;;5018812;28;20030;-83
2022/06/19 10:23:06;;;;;;;1.52;1.27;;;33.10;41.50;;;;;;5020378;28;20033;-81
2022/06/19 10:25:44;;;;;;;5.13;1.92;;;33.30;42.10;;;;;;5023136;28;20053;-85
2022/06/19 10:28:33;;;;;;;5.43;2.03;;;32.90;42.80;;;;;;5021309;28;20021;-81
2022/06/19 10:31:34;;;;;;;9.15;2.45;;;33.10;41.60;;;;;;5024088;28;20112;-83
2022/06/19 10:34:37;;;;;;;4.55;2.42;;;32.80;42.00;;;;;;5025967;28;20040;-81
2022/06/19 10:37:16;;;;;;;7.00;1.90;;;33.10;41.80;;;;;;5020234;28;20038;-81
2022/06/19 10:40:09;;;;;;;10.35;2.95;;;33.50;41.40;;;;;;5026282;28;20112;-88
2022/06/19 10:43:00;;;;;;;7.63;2.10;;;33.50;41.50;;;;;;5018861;28;20029;-83
2022/06/19 10:45:35;;;;;;;5.32;2.03;;;33.70;41.30;;;;;;5022799;28;20040;-82
2022/06/19 10:48:24;;;;;;;5.13;2.70;;;33.40;41.40;;;;;;5019323;28;20037;-84
2022/06/19 10:51:08;;;;;;;4.97;1.75;;;33.90;40.50;;;;;;5018237;28;20029;-84
2022/06/19 10:54:16;;;;;;;2.70;2.15;;;34.10;40.30;;;;;;5019482;28;20034;-82
2022/06/19 10:57:19;;;;;;;2.97;1.77;;;34.30;41.50;;;;;;5015591;28;20096;-85
2022/06/19 10:59:47;;;;;;;6.75;2.53;;;34.60;40.20;;;;;;5012989;28;20025;-88
2022/06/19 11:05:29;;;;;;;4.93;2.78;;;34.80;40.60;;;;;;5026525;28;20254;-82
2022/06/19 11:07:56;;;;;;;4.82;2.60;;;35.10;39.40;;;;;;5020202;28;20376;-83
2022/06/19 11:10:40;;;;;;;5.53;2.40;;;35.30;38.40;;;;;;5021923;28;20652;-82
2022/06/19 11:13:05;;;;;;;5.45;2.40;;;35.20;38.80;;;;;;5015264;28;20029;-82
2022/06/19 11:15:41;;;;;;;3.22;2.03;;;34.80;40.70;;;;;;5023956;28;20028;-84
2022/06/19 11:18:14;;;;;;;3.53;1.90;;;35.00;40.10;;;;;;5025408;28;20038;-83
2022/06/19 11:21:10;;;;;;;7.82;3.22;;;35.30;39.30;;;;;;5023378;28;20105;-84
2022/06/19 11:23:41;;;;;;;7.93;1.80;;;35.20;40.00;;;;;;5027032;28;20147;-84
2022/06/19 11:26:14;;;;;;;5.47;2.47;;;35.70;38.60;;;;;;5021203;28;20025;-80
2022/06/19 11:29:07;;;;;;;6.05;2.50;;;35.90;37.60;;;;;;5032340;28;20061;-85
2022/06/19 11:31:36;;;;;;;2.92;1.90;;;35.70;37.90;;;;;;5030089;28;20029;-82
2022/06/19 11:37:23;;;;;;;7.75;1.73;;;35.80;38.70;;;;;;5021827;28;20064;-84
2022/06/19 11:39:50;;;;;;;2.20;1.88;;;36.00;39.10;;;;;;5026006;28;20059;-83
2022/06/19 11:42:30;;;;;;;6.72;2.72;;;35.80;38.80;;;;;;5025771;28;20150;-83
2022/06/19 11:45:00;;;;;;;3.40;2.45;;;35.70;40.30;;;;;;5022810;28;20060;-79
2022/06/19 11:47:27;;;;;;;;;;;35.20;42.00;;;;;;5027332;28;20121;-81
2022/06/19 11:50:10;;;;;;;6.85;3.28;;;34.90;44.60;;;;;;5027772;28;20030;-81
2022/06/19 11:52:41;;;;;;;9.00;2.92;;;34.10;48.40;;;;;;5015666;28;20045;-83
2022/06/19 11:55:16;;;;;;;3.38;2.45;;;33.90;48.50;;;;;;5021125;28;20034;-83
2022/06/19 11:57:41;;;;;;;2.88;2.15;;;33.60;51.70;;;;;;5024826;28;20455;-82
2022/06/19 12:00:21;;;;;;;7.50;3.53;;;33.70;50.10;;;;;;5029748;28;20060;-84
2022/06/19 12:03:13;;;;;;;20.00;4.75;;;33.60;50.30;;;;;;5027661;28;20096;-83
2022/06/19 12:05:50;;;;;;;4.43;3.08;;;33.90;49.80;;;;;;5020430;28;20056;-83
2022/06/19 12:08:27;;;;;;;7.43;3.20;;;33.70;51.30;;;;;;5027473;28;20068;-84
2022/06/19 12:11:05;;;;;;;4.05;2.78;;;33.40;49.90;;;;;;5028347;28;20021;-80
2022/06/19 12:13:35;;;;;;;7.13;3.20;;;33.50;51.90;;;;;;5026015;28;20503;-82
2022/06/19 12:16:20;;;;;;;4.10;3.03;;;33.90;48.70;;;;;;5015889;28;20133;-81
2022/06/19 12:18:48;;;;;;;4.63;3.00;;;34.00;47.80;;;;;;5030113;28;20037;-81
2022/06/19 12:21:18;;;;;;;5.32;2.55;;;33.80;47.50;;;;;;5028562;28;20538;-84
2022/06/19 12:24:07;;;;;;;5.65;2.95;;;33.60;49.40;;;;;;5027754;28;20439;-83
2022/06/19 12:26:40;;;;;;;2.88;1.77;;;33.40;47.70;;;;;;5027739;28;20122;-84
2022/06/19 12:29:15;;;;;;;5.07;3.25;;;33.60;48.40;;;;;;5030559;28;20057;-82
2022/06/19 12:31:42;;;;;;;9.55;3.17;;;34.10;47.90;;;;;;5027121;28;20026;-80
2022/06/19 12:34:30;;;;;;;4.85;3.35;;;34.10;46.00;;;;;;5027951;28;20155;-78
2022/06/19 12:36:59;;;;;;;6.68;3.17;;;34.40;45.40;;;;;;5024977;28;20053;-81
2022/06/19 12:39:29;;;;;;;5.95;2.20;;;34.40;46.10;;;;;;5025495;28;20060;-85
2022/06/19 12:42:14;;;;;;;8.77;5.17;;;34.70;47.40;;;;;;5026844;28;20443;-81
2022/06/19 12:45:14;;;;;;;9.68;3.92;;;34.90;45.20;;;;;;5030096;28;20314;-84
2022/06/19 12:47:47;;;;;;;6.15;2.75;;;34.50;45.60;;;;;;5027719;28;20079;-80
2022/06/19 12:50:37;;;;;;;5.90;2.25;;;34.80;45.80;;;;;;5023061;28;20041;-82
2022/06/19 12:53:22;;;;;;;10.18;3.05;;;34.90;44.90;;;;;;5029475;28;20116;-84
2022/06/19 12:56:23;;;;;;;6.97;3.35;;;34.70;43.50;;;;;;5027089;28;20071;-84
2022/06/19 12:59:20;;;;;;;4.25;2.00;;;35.20;43.70;;;;;;5032566;28;20488;-78
2022/06/19 13:02:19;;;;;;;5.85;2.42;;;35.60;42.30;;;;;;5026890;28;20393;-82
2022/06/19 13:05:42;;;;;;;3.45;1.73;;;35.90;42.00;;;;;;5030022;28;20032;-79
2022/06/19 13:08:44;;;;;;;4.03;2.10;;;35.80;42.20;;;;;;5025631;28;20484;-82
2022/06/19 13:11:55;;;;;;;10.70;2.38;;;34.90;43.50;;;;;;5020459;28;20033;-80
2022/06/19 13:14:51;;;;;;;2.92;1.90;;;35.80;41.90;;;;;;5023673;28;20045;-78
2022/06/19 13:17:27;;;;;;;5.82;2.75;;;36.60;41.40;;;;;;5027294;28;20041;-81
2022/06/19 13:20:32;;;;;;;3.55;1.88;;;36.50;40.30;;;;;;5026248;28;20494;-82
2022/06/19 13:23:19;;;;;;;9.63;2.40;;;36.30;40.30;;;;;;5030293;28;20053;-80
2022/06/19 13:29:49;;;;;;;4.57;3.08;;;36.50;41.90;;;;;;5025118;28;20523;-80